createdAt,value
2024-04-24T00:02:20.321Z,21.60
2024-04-24T00:04:47.784Z,23.30
2024-04-24T00:07:15.855Z,23.70
2024-04-24T00:09:42.757Z,25.60
2024-04-24T00:12:10.398Z,22.30
2024-04-24T00:14:37.606Z,21.80
2024-04-24T00:17:05.339Z,23.50
2024-04-24T00:19:32.197Z,21.40
2024-04-24T00:21:59.137Z,22.90
2024-04-24T00:24:26.243Z,21.80
2024-04-24T00:26:53.286Z,19.10
2024-04-24T00:29:20.332Z,21.10
2024-04-24T00:31:47.300Z,27.90
2024-04-24T00:34:14.388Z,25.40
2024-04-24T00:36:41.376Z,21.70
2024-04-24T00:39:08.382Z,21.00
2024-04-24T00:41:35.237Z,23.10
2024-04-24T00:44:02.390Z,21.40
2024-04-24T00:46:33.628Z,23.20
2024-04-24T00:49:02.132Z,24.80
2024-04-24T00:51:31.426Z,23.80
2024-04-24T00:53:58.488Z,23.10
2024-04-24T00:56:25.558Z,24.30
2024-04-24T00:58:53.811Z,22.60
2024-04-24T01:01:22.515Z,23.60
2024-04-24T01:03:50.570Z,22.10
2024-04-24T01:06:17.515Z,21.60
2024-04-24T01:08:44.826Z,25.30
2024-04-24T01:11:12.005Z,24.70
2024-04-24T01:13:38.950Z,20.50
2024-04-24T01:16:10.988Z,24.30
2024-04-24T01:18:42.212Z,24.50
2024-04-24T01:21:10.938Z,22.20
2024-04-24T01:23:44.418Z,24.40
2024-04-24T01:26:15.764Z,22.30
2024-04-24T01:28:43.025Z,25.10
2024-04-24T01:31:10.183Z,24.70
2024-04-24T01:33:37.215Z,21.10
2024-04-24T01:36:04.596Z,23.70
2024-04-24T01:38:31.468Z,21.20
2024-04-24T01:40:59.572Z,21.00
2024-04-24T01:43:26.434Z,22.40
2024-04-24T01:45:53.388Z,23.80
2024-04-24T01:48:20.354Z,22.00
2024-04-24T01:50:47.589Z,22.30
2024-04-24T01:53:14.792Z,23.40
2024-04-24T01:55:41.942Z,21.60
2024-04-24T01:58:09.287Z,25.60
2024-04-24T02:00:36.304Z,22.60
2024-04-24T02:03:03.441Z,25.50
2024-04-24T02:05:30.567Z,20.40
2024-04-24T02:07:57.592Z,23.00
2024-04-24T02:10:24.689Z,20.90
2024-04-24T02:12:51.668Z,21.20
2024-04-24T02:15:18.813Z,24.80
2024-04-24T02:17:46.074Z,21.80
2024-04-24T02:20:13.670Z,22.20
2024-04-24T02:22:40.799Z,26.30
2024-04-24T02:25:26.378Z,20.70
2024-04-24T02:27:53.227Z,21.90
2024-04-24T02:30:20.222Z,22.60
2024-04-24T02:32:47.619Z,22.90
2024-04-24T02:35:14.828Z,21.50
2024-04-24T02:37:42.166Z,20.10
2024-04-24T02:40:10.865Z,19.40
2024-04-24T02:42:38.215Z,21.20
2024-04-24T02:45:05.479Z,20.40
2024-04-24T02:47:32.721Z,19.70
2024-04-24T02:49:59.744Z,21.50
2024-04-24T02:52:26.633Z,20.20
2024-04-24T02:54:53.859Z,23.30
2024-04-24T02:57:20.985Z,22.50
2024-04-24T02:59:47.966Z,21.70
2024-04-24T03:02:14.771Z,22.50
2024-04-24T03:04:41.858Z,20.70
2024-04-24T03:07:09.271Z,24.50
2024-04-24T03:09:36.627Z,20.40
2024-04-24T03:12:03.564Z,20.70
2024-04-24T03:14:30.577Z,20.30
2024-04-24T03:16:57.833Z,21.30
2024-04-24T03:19:24.832Z,22.50
2024-04-24T03:21:51.886Z,21.30
2024-04-24T03:24:18.975Z,21.70
2024-04-24T03:26:45.922Z,20.30
2024-04-24T03:29:12.834Z,20.90
2024-04-24T03:31:39.783Z,20.90
2024-04-24T03:34:06.645Z,24.80
2024-04-24T03:36:34.007Z,19.10
2024-04-24T03:39:01.238Z,19.20
2024-04-24T03:41:28.218Z,21.10
2024-04-24T03:43:54.994Z,20.40
2024-04-24T03:46:21.779Z,23.20
2024-04-24T03:48:48.539Z,19.70
2024-04-24T03:51:15.301Z,22.50
2024-04-24T03:53:42.530Z,19.10
2024-04-24T03:56:10.064Z,19.50
2024-04-24T03:58:37.220Z,18.70
2024-04-24T04:01:04.415Z,20.90
2024-04-24T04:03:31.847Z,21.90
2024-04-24T04:05:58.992Z,19.10
2024-04-24T04:08:25.936Z,20.20
2024-04-24T04:10:53.245Z,19.10
2024-04-24T04:13:20.378Z,21.60
2024-04-24T04:15:47.132Z,24.50
2024-04-24T04:18:14.022Z,20.30
2024-04-24T04:20:41.029Z,18.20
2024-04-24T04:23:08.210Z,20.20
2024-04-24T04:25:35.384Z,20.70
2024-04-24T04:28:02.747Z,20.30
2024-04-24T04:30:29.663Z,19.50
2024-04-24T04:32:56.848Z,17.40
2024-04-24T04:35:24.023Z,20.00
2024-04-24T04:37:51.012Z,20.60
2024-04-24T04:40:18.081Z,21.00
2024-04-24T04:42:45.425Z,17.70
2024-04-24T04:45:13.003Z,17.30
2024-04-24T04:47:40.012Z,16.60
2024-04-24T04:50:08.283Z,19.30
2024-04-24T04:52:35.249Z,18.80
2024-04-24T04:55:03.519Z,17.30
2024-04-24T04:57:30.677Z,19.10
2024-04-24T04:59:57.820Z,17.60
2024-04-24T05:02:25.081Z,21.90
2024-04-24T05:04:52.263Z,20.00
2024-04-24T05:07:19.023Z,16.90
2024-04-24T05:09:46.009Z,17.80
2024-04-24T05:12:13.108Z,17.50
2024-04-24T05:14:40.213Z,17.50
2024-04-24T05:17:09.489Z,19.60
2024-04-24T05:19:36.350Z,17.80
2024-04-24T05:22:03.306Z,26.50
2024-04-24T05:24:30.288Z,18.60
2024-04-24T05:27:15.031Z,20.90
2024-04-24T05:29:41.849Z,19.20
2024-04-24T05:32:08.687Z,17.50
2024-04-24T05:34:35.386Z,17.70
2024-04-24T05:37:02.227Z,17.30
2024-04-24T05:39:29.123Z,17.30
2024-04-24T05:41:56.177Z,17.10
2024-04-24T05:44:24.833Z,18.70
2024-04-24T05:46:51.803Z,17.50
2024-04-24T05:49:18.866Z,19.50
2024-04-24T05:51:45.567Z,20.00
2024-04-24T05:54:12.223Z,21.30
2024-04-24T05:56:39.007Z,22.10
2024-04-24T05:59:05.812Z,15.30
2024-04-24T06:01:32.584Z,22.40
2024-04-24T06:03:59.333Z,20.90
2024-04-24T06:06:26.111Z,18.20
2024-04-24T06:08:52.817Z,17.80
2024-04-24T06:11:19.968Z,19.80
2024-04-24T06:13:47.025Z,17.20
2024-04-24T06:16:14.539Z,17.00
2024-04-24T06:18:41.861Z,15.20
2024-04-24T06:21:09.319Z,18.80
2024-04-24T06:23:36.434Z,17.40
2024-04-24T06:26:03.567Z,14.80
2024-04-24T06:28:30.646Z,16.80
2024-04-24T06:30:57.738Z,16.90
2024-04-24T06:33:24.727Z,15.20
2024-04-24T06:35:51.619Z,21.30
2024-04-24T06:38:20.521Z,16.50
2024-04-24T06:40:47.514Z,18.20
2024-04-24T06:43:14.270Z,20.80
2024-04-24T06:45:41.237Z,17.90
2024-04-24T06:48:09.393Z,15.60
2024-04-24T06:50:36.756Z,15.50
2024-04-24T06:53:03.961Z,20.30
2024-04-24T06:55:32.218Z,17.90
2024-04-24T06:58:00.833Z,18.50
2024-04-24T07:00:31.229Z,16.00
2024-04-24T07:02:58.304Z,15.80
2024-04-24T07:05:25.276Z,17.30
2024-04-24T07:07:52.279Z,16.90
2024-04-24T07:10:19.323Z,16.60
2024-04-24T07:12:48.915Z,14.60
2024-04-24T07:15:16.975Z,14.80
2024-04-24T07:17:44.194Z,20.00
2024-04-24T07:20:12.096Z,14.00
2024-04-24T07:22:39.343Z,16.00
2024-04-24T07:25:07.249Z,13.90
2024-04-24T07:27:34.803Z,12.90
2024-04-24T07:30:03.390Z,14.10
2024-04-24T07:32:30.653Z,11.60
2024-04-24T07:34:57.790Z,13.70
2024-04-24T07:37:25.499Z,16.40
2024-04-24T07:39:52.702Z,13.00
2024-04-24T07:42:19.644Z,12.50
2024-04-24T07:44:46.466Z,16.40
2024-04-24T07:47:13.910Z,12.20
2024-04-24T07:49:41.587Z,15.30
2024-04-24T07:52:08.870Z,12.00
2024-04-24T07:54:36.787Z,12.30
2024-04-24T07:57:03.941Z,11.10
2024-04-24T07:59:31.105Z,10.10
2024-04-24T08:01:58.678Z,13.50
2024-04-24T08:04:25.922Z,12.30
2024-04-24T08:06:52.963Z,9.70
2024-04-24T08:09:20.262Z,9.40
2024-04-24T08:11:47.569Z,13.60
2024-04-24T08:14:15.695Z,9.90
2024-04-24T08:16:42.666Z,12.30
2024-04-24T08:19:10.119Z,12.70
2024-04-24T08:21:37.406Z,11.70
2024-04-24T08:24:04.320Z,9.50
2024-04-24T08:26:31.520Z,11.70
2024-04-24T08:28:58.358Z,9.90
2024-04-24T08:31:25.431Z,11.00
2024-04-24T08:33:52.548Z,9.50
2024-04-24T08:36:19.566Z,10.00
2024-04-24T08:38:46.778Z,9.50
2024-04-24T08:41:14.453Z,13.50
2024-04-24T08:43:42.479Z,13.30
2024-04-24T08:46:11.754Z,9.90
2024-04-24T08:48:41.176Z,12.30
2024-04-24T08:51:09.726Z,10.10
2024-04-24T08:53:38.268Z,9.60
2024-04-24T08:56:09.544Z,11.80
2024-04-24T08:58:39.753Z,10.40
2024-04-24T09:01:10.391Z,10.20
2024-04-24T09:03:41.775Z,9.20
2024-04-24T09:06:11.472Z,10.00
2024-04-24T09:08:39.469Z,9.80
2024-04-24T09:11:07.973Z,9.20
2024-04-24T09:13:36.269Z,10.30
2024-04-24T09:16:05.954Z,11.60
2024-04-24T09:18:32.890Z,10.80
2024-04-24T09:21:01.068Z,14.20
2024-04-24T09:23:27.983Z,10.00
2024-04-24T09:25:54.791Z,10.50
2024-04-24T09:28:21.488Z,8.60
2024-04-24T09:30:52.715Z,12.90
2024-04-24T09:33:19.710Z,11.00
2024-04-24T09:35:47.242Z,10.40
2024-04-24T09:38:15.267Z,10.70
2024-04-24T09:40:42.178Z,13.00
2024-04-24T09:43:09.300Z,10.20
2024-04-24T09:45:36.332Z,24.60
2024-04-24T09:48:05.122Z,24.60
2024-04-24T09:50:35.877Z,11.20
2024-04-24T09:53:03.476Z,10.20
2024-04-24T09:55:39.468Z,9.40
2024-04-24T09:58:09.232Z,9.40
2024-04-24T10:00:37.849Z,9.00
2024-04-24T10:03:11.984Z,10.30
2024-04-24T10:05:47.824Z,10.40
2024-04-24T10:08:30.954Z,8.90
2024-04-24T10:10:59.958Z,11.00
2024-04-24T10:13:34.331Z,12.20
2024-04-24T10:16:03.241Z,11.50
2024-04-24T10:18:31.040Z,15.80
2024-04-24T10:20:59.625Z,11.10
2024-04-24T10:23:29.008Z,9.80
2024-04-24T10:25:57.376Z,11.30
2024-04-24T10:28:25.881Z,13.70
2024-04-24T10:30:54.295Z,13.00
2024-04-24T10:33:22.163Z,12.10
2024-04-24T10:35:49.824Z,12.20
2024-04-24T10:38:17.536Z,10.60
2024-04-24T10:40:50.496Z,9.90
2024-04-24T10:43:18.952Z,11.70
2024-04-24T10:45:46.086Z,11.20
2024-04-24T10:48:14.480Z,10.10
2024-04-24T10:50:42.803Z,11.50
2024-04-24T10:53:14.343Z,10.00
2024-04-24T10:55:51.542Z,9.70
2024-04-24T10:58:23.926Z,13.30
2024-04-24T11:00:51.126Z,11.20
2024-04-24T11:03:18.458Z,10.00
2024-04-24T11:05:45.674Z,9.90
2024-04-24T11:08:20.868Z,9.20
2024-04-24T11:10:52.691Z,9.10
2024-04-24T11:13:19.867Z,10.00
2024-04-24T11:15:54.542Z,11.40
2024-04-24T11:18:28.359Z,9.70
2024-04-24T11:20:55.633Z,8.90
2024-04-24T11:23:22.598Z,11.90
2024-04-24T11:25:58.906Z,9.90
2024-04-24T11:28:27.244Z,9.50
2024-04-24T11:30:54.338Z,11.10
2024-04-24T11:33:23.071Z,10.90
2024-04-24T11:35:50.375Z,10.30
2024-04-24T11:38:17.259Z,12.40
2024-04-24T11:40:45.493Z,9.40
2024-04-24T11:43:12.525Z,11.40
2024-04-24T11:45:40.329Z,11.10
2024-04-24T11:48:09.113Z,10.90
2024-04-24T11:50:37.056Z,9.90
2024-04-24T11:53:04.978Z,14.10
2024-04-24T11:55:35.320Z,10.00
2024-04-24T11:58:09.963Z,13.90
2024-04-24T12:00:42.541Z,12.70
2024-04-24T12:03:09.870Z,11.80
2024-04-24T12:05:37.241Z,12.30
2024-04-24T12:08:04.570Z,15.90
2024-04-24T12:10:31.878Z,11.10
2024-04-24T12:12:59.120Z,9.20
2024-04-24T12:15:26.375Z,10.20
2024-04-24T12:17:53.445Z,10.90
2024-04-24T12:20:20.508Z,11.20
2024-04-24T12:22:47.286Z,11.60
2024-04-24T12:25:14.095Z,10.40
2024-04-24T12:27:41.164Z,11.20
2024-04-24T12:30:09.742Z,10.20
2024-04-24T12:32:38.028Z,10.60
2024-04-24T12:35:05.519Z,10.10
2024-04-24T12:37:34.780Z,11.20
2024-04-24T12:40:03.085Z,13.40
2024-04-24T12:42:30.202Z,11.90
2024-04-24T12:44:57.131Z,11.10
2024-04-24T12:47:24.275Z,11.10
2024-04-24T12:49:52.695Z,14.10
2024-04-24T12:52:19.897Z,13.00
2024-04-24T12:54:46.739Z,12.20
2024-04-24T12:57:13.874Z,13.10
2024-04-24T12:59:41.056Z,11.00
2024-04-24T13:02:08.297Z,11.10
2024-04-24T13:04:35.368Z,12.70
2024-04-24T13:07:02.579Z,12.20
2024-04-24T13:09:29.522Z,14.50
2024-04-24T13:11:56.569Z,11.60
2024-04-24T13:14:23.905Z,14.50
2024-04-24T13:16:51.752Z,12.10
2024-04-24T13:19:19.200Z,13.80
2024-04-24T13:21:46.688Z,13.60
2024-04-24T13:24:17.438Z,12.70
2024-04-24T13:26:47.678Z,12.30
2024-04-24T13:29:14.955Z,12.50
2024-04-24T13:31:42.243Z,11.70
2024-04-24T13:34:09.324Z,12.30
2024-04-24T13:36:36.281Z,15.50
2024-04-24T13:39:03.914Z,15.10
2024-04-24T13:41:36.325Z,13.90
2024-04-24T13:44:05.617Z,13.40
2024-04-24T13:46:32.987Z,13.00
2024-04-24T13:48:59.886Z,12.10
2024-04-24T13:51:26.780Z,16.90
2024-04-24T13:53:53.621Z,23.70
2024-04-24T13:56:20.380Z,12.60
2024-04-24T13:58:47.217Z,15.00
2024-04-24T16:16:38.032Z,8.00
2024-04-24T16:19:06.383Z,8.00
2024-04-24T16:21:33.283Z,8.30
2024-04-24T16:23:59.969Z,10.80
2024-04-24T16:26:26.828Z,7.90
2024-04-24T16:28:54.071Z,7.30
2024-04-24T16:31:20.806Z,9.40
2024-04-24T16:33:48.186Z,9.90
2024-04-24T16:36:15.090Z,9.90
2024-04-24T16:38:42.072Z,8.90
2024-04-24T16:41:18.165Z,7.70
2024-04-24T16:43:49.549Z,9.90
2024-04-24T16:46:18.352Z,8.40
2024-04-24T16:48:45.161Z,11.20
2024-04-24T16:51:12.051Z,7.70
2024-04-24T16:53:38.800Z,9.90
2024-04-24T16:56:07.213Z,8.60
2024-04-24T16:58:33.977Z,8.40
2024-04-24T17:01:01.046Z,9.50
2024-04-24T17:03:28.025Z,10.40
2024-04-24T17:05:55.414Z,9.30
2024-04-24T17:08:22.095Z,9.50
2024-04-24T17:10:48.962Z,8.70
2024-04-24T17:13:15.752Z,9.00
2024-04-24T17:15:43.084Z,9.00
2024-04-24T17:18:10.149Z,8.10
2024-04-24T17:20:37.063Z,10.70
2024-04-24T17:23:03.955Z,10.30
2024-04-24T17:25:30.716Z,9.60
2024-04-24T17:27:57.702Z,12.10
2024-04-24T17:30:24.406Z,14.50
2024-04-24T17:32:51.915Z,9.10
2024-04-24T17:35:19.124Z,8.60
2024-04-24T17:37:45.900Z,8.40
2024-04-24T17:40:13.310Z,8.00
2024-04-24T17:42:40.904Z,8.70
2024-04-24T17:45:09.011Z,9.00
2024-04-24T17:47:36.103Z,10.90
2024-04-24T17:50:04.097Z,10.50
2024-04-24T17:52:32.539Z,10.40
2024-04-24T17:54:59.308Z,10.70
2024-04-24T17:57:27.042Z,8.80
2024-04-24T17:59:53.884Z,9.30
2024-04-24T18:02:20.682Z,13.40
2024-04-24T18:04:47.431Z,10.40
2024-04-24T18:07:14.169Z,9.80
2024-04-24T18:09:40.860Z,10.10
2024-04-24T18:12:09.101Z,9.70
2024-04-24T18:14:35.924Z,9.20
2024-04-24T18:17:03.135Z,10.60
2024-04-24T18:19:29.933Z,13.70
2024-04-24T18:21:56.656Z,10.40
2024-04-24T18:24:25.250Z,11.70
2024-04-24T18:26:51.989Z,10.70
2024-04-24T18:29:18.954Z,10.40
2024-04-24T18:31:46.308Z,10.80
2024-04-24T18:34:15.484Z,10.20
2024-04-24T18:36:43.005Z,11.60
2024-04-24T18:39:10.023Z,11.90
2024-04-24T18:41:36.940Z,11.00
2024-04-24T18:44:04.175Z,11.80
2024-04-24T18:46:31.199Z,14.40
2024-04-24T18:48:58.518Z,14.50
2024-04-24T18:51:25.561Z,12.00
2024-04-24T18:53:52.402Z,14.90
2024-04-24T18:56:19.320Z,14.40
2024-04-24T18:58:46.188Z,11.50
2024-04-24T19:01:13.050Z,13.30
2024-04-24T19:03:39.998Z,12.30
2024-04-24T19:06:07.690Z,14.60
2024-04-24T19:08:34.666Z,14.20
2024-04-24T19:11:01.734Z,10.60
2024-04-24T19:13:28.972Z,11.90
2024-04-24T19:15:55.693Z,12.80
2024-04-24T19:18:22.805Z,10.30
2024-04-24T19:20:49.746Z,11.10
2024-04-24T19:23:16.649Z,10.10
2024-04-24T19:25:43.335Z,11.20
2024-04-24T19:28:10.764Z,13.30
2024-04-24T19:30:37.522Z,9.00
2024-04-24T19:33:04.540Z,12.70
2024-04-24T19:35:31.522Z,10.70
2024-04-24T19:37:59.307Z,10.00
2024-04-24T19:40:29.520Z,11.10
2024-04-24T19:42:56.352Z,12.80
2024-04-24T19:45:23.691Z,13.40
2024-04-24T19:47:50.522Z,14.70
2024-04-24T19:50:18.320Z,9.90
2024-04-24T19:52:45.117Z,10.20
2024-04-24T19:55:12.803Z,11.10
2024-04-24T19:57:39.794Z,12.00
2024-04-24T20:00:08.000Z,10.90
2024-04-24T20:02:37.199Z,14.00
2024-04-24T20:05:04.566Z,13.00
2024-04-24T20:07:32.853Z,11.40
2024-04-24T20:09:59.653Z,10.60
2024-04-24T20:12:26.385Z,12.10
2024-04-24T20:14:53.567Z,11.80
2024-04-24T20:17:22.738Z,8.50
2024-04-24T20:20:03.814Z,9.50
2024-04-24T20:22:31.293Z,8.80
2024-04-24T20:24:57.994Z,9.70
2024-04-24T20:27:24.800Z,11.70
2024-04-24T20:29:51.681Z,9.30
2024-04-24T20:32:18.401Z,8.60
2024-04-24T20:34:45.247Z,7.50
2024-04-24T20:37:12.052Z,7.50
2024-04-24T20:39:40.476Z,8.10
2024-04-24T20:42:10.776Z,9.40
2024-04-24T20:44:38.417Z,7.80
2024-04-24T20:47:05.316Z,8.00
2024-04-24T20:49:32.083Z,7.40
2024-04-24T20:51:58.767Z,7.70
2024-04-24T20:54:25.721Z,7.50
2024-04-24T20:56:52.476Z,8.00
2024-04-24T20:59:19.322Z,8.20
2024-04-24T21:01:46.011Z,7.80
2024-04-24T21:04:12.694Z,8.00
2024-04-24T21:06:39.853Z,9.50
2024-04-24T21:09:08.382Z,7.60
2024-04-24T21:11:35.169Z,8.40
2024-04-24T21:14:02.376Z,8.80
2024-04-24T21:16:29.119Z,18.40
2024-04-24T21:18:56.053Z,11.10
2024-04-24T21:21:23.371Z,12.20
2024-04-24T21:23:51.872Z,8.90
2024-04-24T21:26:19.065Z,10.10
2024-04-24T21:28:46.072Z,9.80
2024-04-24T21:31:12.866Z,10.80
2024-04-24T21:33:39.590Z,10.00
2024-04-24T21:36:07.143Z,9.30
2024-04-24T21:38:36.052Z,8.60
2024-04-24T21:41:04.961Z,8.60
2024-04-24T21:43:31.795Z,8.60
2024-04-24T21:46:04.735Z,9.80
2024-04-24T21:48:31.485Z,9.40
2024-04-24T21:50:58.135Z,8.70
2024-04-24T21:53:24.887Z,8.00
2024-04-24T21:55:51.672Z,9.10
2024-04-24T21:58:18.658Z,8.40
2024-04-24T22:00:45.433Z,8.60
2024-04-24T22:03:12.334Z,8.00
2024-04-24T22:05:39.182Z,10.40
2024-04-24T22:08:06.394Z,8.70
2024-04-24T22:10:33.357Z,11.00
2024-04-24T22:13:02.011Z,10.30
2024-04-24T22:15:31.451Z,10.00
2024-04-24T22:18:01.198Z,10.50
2024-04-24T22:20:28.067Z,11.10
2024-04-24T22:22:55.324Z,10.10
2024-04-24T22:25:23.198Z,9.90
2024-04-24T22:27:49.990Z,9.00
2024-04-24T22:30:17.064Z,10.30
2024-04-24T22:32:44.024Z,11.20
2024-04-24T22:35:11.080Z,9.50
2024-04-24T22:37:37.877Z,9.00
2024-04-24T22:40:05.215Z,11.20
2024-04-24T22:42:32.029Z,10.50
2024-04-24T22:44:58.723Z,9.70
2024-04-24T22:47:25.636Z,9.30
2024-04-24T22:49:52.389Z,10.20
2024-04-24T22:52:19.046Z,9.80
2024-04-24T22:54:46.264Z,9.30
2024-04-24T22:57:12.958Z,11.10
2024-04-24T22:59:39.664Z,9.80
2024-04-24T23:02:06.815Z,10.30
2024-04-24T23:04:33.623Z,11.30
2024-04-24T23:07:00.363Z,10.40
2024-04-24T23:09:27.360Z,9.80
2024-04-24T23:11:54.098Z,10.00
2024-04-24T23:14:25.967Z,12.00
2024-04-24T23:16:52.724Z,11.50
2024-04-24T23:19:20.931Z,11.60
2024-04-24T23:21:47.680Z,11.60
2024-04-24T23:24:14.618Z,14.80
2024-04-24T23:26:45.934Z,10.70
2024-04-24T23:29:13.323Z,12.80
2024-04-24T23:31:40.234Z,10.90
2024-04-24T23:34:07.312Z,11.00
2024-04-24T23:36:33.941Z,11.50
2024-04-24T23:39:00.690Z,14.00
2024-04-24T23:41:27.462Z,11.90
2024-04-24T23:43:54.537Z,12.50
2024-04-24T23:46:21.565Z,17.30
2024-04-24T23:48:49.071Z,14.10
2024-04-24T23:51:15.787Z,11.80
2024-04-24T23:53:42.562Z,11.80
2024-04-24T23:56:10.497Z,12.20
2024-04-24T23:58:37.236Z,13.00
